Wetterdaten: Woche 16.05.11 - 22.05.11 (KW20)
Datum Zeit Temp. Innen Temp. Aussen UV X Diff Temp. Feuchte Inne Feuchte Auss Sonnenschein Luftdruck Regen ab 0,1 Wind Sonnenschein T Regendauer Windben
16.05.2011 00:00 20,3 C 11,3 C 0,1 UV-I 0,0 C 44 % 68 % 0 % 1024,0 hPa 0,0 l/m 1,0 km/h (0 Bft) 0,00 h 0,00 h 1,5 km/h (1 Bft)
16.05.2011 01:00 20,2 C 11,4 C 0,1 UV-I 0,0 C 45 % 71 % 0 % 1023,8 hPa 0,0 l/m 0,9 km/h (0 Bft) 0,00 h 0,00 h 1,1 km/h (1 Bft)
16.05.2011 02:00 20,1 C 11,2 C 0,1 UV-I 0,0 C 45 % 74 % 0 % 1023,6 hPa 0,0 l/m 0,8 km/h (0 Bft) 0,00 h 0,00 h 1,7 km/h (1 Bft)
16.05.2011 03:00 20,0 C 11,2 C 0,0 UV-I 0,0 C 46 % 75 % 0 % 1023,4 hPa 0,0 l/m 1,4 km/h (1 Bft) 0,00 h 0,00 h 2,5 km/h (1 Bft)
16.05.2011 04:00 19,9 C 11,3 C 0,1 UV-I 0,0 C 46 % 74 % 0 % 1023,0 hPa 0,0 l/m 1,8 km/h (1 Bft) 0,00 h 0,00 h 2,5 km/h (1 Bft)
16.05.2011 05:00 19,8 C 11,5 C 0,1 UV-I 0,0 C 46 % 74 % 0 % 1022,7 hPa 0,0 l/m 2,2 km/h (1 Bft) 0,00 h 0,00 h 3,3 km/h (1 Bft)
16.05.2011 06:00 19,7 C 11,6 C 0,2 UV-I 0,0 C 46 % 73 % 0 % 1022,5 hPa 0,0 l/m 3,9 km/h (1 Bft) 0,00 h 0,00 h 5,3 km/h (1 Bft)
16.05.2011 07:00 19,7 C 11,9 C 0,6 UV-I 0,0 C 46 % 74 % 1 % 1022,3 hPa 0,0 l/m 4,4 km/h (1 Bft) 0,00 h 0,00 h 5,2 km/h (1 Bft)
16.05.2011 08:00 19,8 C 12,5 C 1,4 UV-I 0,9 C 46 % 73 % 25 % 1022,3 hPa 0,0 l/m 6,0 km/h (2 Bft) 0,00 h 0,00 h 7,8 km/h (2 Bft)
16.05.2011 09:00 20,1 C 13,7 C 2,1 UV-I 1,7 C 46 % 71 % 49 % 1022,2 hPa 0,0 l/m 6,2 km/h (2 Bft) 0,00 h 0,00 h 6,2 km/h (2 Bft)
16.05.2011 10:00 20,4 C 14,6 C 2,2 UV-I 1,6 C 46 % 69 % 46 % 1022,2 hPa 0,0 l/m 7,8 km/h (2 Bft) 0,00 h 0,00 h 8,8 km/h (2 Bft)
16.05.2011 11:00 20,6 C 15,0 C 2,3 UV-I 1,4 C 46 % 69 % 41 % 1022,3 hPa 0,0 l/m 7,4 km/h (2 Bft) 0,00 h 0,00 h 9,1 km/h (2 Bft)
16.05.2011 12:00 20,8 C 15,3 C 2,5 UV-I 1,3 C 47 % 70 % 37 % 1022,4 hPa 0,0 l/m 9,2 km/h (2 Bft) 0,00 h 0,00 h 9,9 km/h (2 Bft)
16.05.2011 13:00 20,9 C 15,4 C 1,6 UV-I 1,0 C 47 % 70 % 28 % 1022,3 hPa 0,0 l/m 7,8 km/h (2 Bft) 0,00 h 0,00 h 9,3 km/h (2 Bft)
16.05.2011 14:00 20,8 C 14,9 C 1,3 UV-I 0,4 C 48 % 72 % 11 % 1022,4 hPa 0,0 l/m 8,5 km/h (2 Bft) 0,00 h 0,00 h 9,5 km/h (2 Bft)
16.05.2011 15:00 20,6 C 14,4 C 0,9 UV-I 0,2 C 49 % 77 % 5 % 1022,4 hPa 0,0 l/m 7,4 km/h (2 Bft) 0,00 h 0,00 h 8,3 km/h (2 Bft)
16.05.2011 16:00 20,6 C 14,4 C 1,1 UV-I 0,6 C 51 % 80 % 16 % 1022,2 hPa 0,0 l/m 7,1 km/h (2 Bft) 0,00 h 0,00 h 8,0 km/h (2 Bft)
16.05.2011 17:00 20,5 C 14,0 C 0,7 UV-I 0,0 C 52 % 84 % 0 % 1022,2 hPa 0,0 l/m 5,5 km/h (1 Bft) 0,00 h 0,00 h 6,1 km/h (2 Bft)
16.05.2011 18:00 20,3 C 13,4 C 0,4 UV-I 0,0 C 53 % 88 % 0 % 1022,2 hPa 0,2 l/m 4,2 km/h (1 Bft) 0,00 h 0,03 h 5,0 km/h (1 Bft)
16.05.2011 19:00 20,2 C 13,5 C 0,5 UV-I 0,0 C 54 % 89 % 0 % 1021,7 hPa 0,0 l/m 3,2 km/h (1 Bft) 0,00 h 0,27 h 4,1 km/h (1 Bft)
16.05.2011 20:00 20,2 C 13,8 C 0,3 UV-I 0,0 C 54 % 87 % 0 % 1021,5 hPa 0,0 l/m 2,5 km/h (1 Bft) 0,00 h 0,00 h 3,5 km/h (1 Bft)
16.05.2011 21:00 20,0 C 13,7 C 0,1 UV-I 0,0 C 54 % 86 % 0 % 1021,4 hPa 0,0 l/m 1,0 km/h (0 Bft) 0,00 h 0,03 h 1,4 km/h (1 Bft)
16.05.2011 22:00 19,9 C 13,7 C 0,0 UV-I 0,0 C 54 % 84 % 0 % 1021,4 hPa 0,0 l/m 1,1 km/h (1 Bft) 0,00 h 0,00 h 1,7 km/h (1 Bft)
16.05.2011 23:00 19,9 C 13,6 C 0,0 UV-I 0,0 C 54 % 83 % 0 % 1021,4 hPa 0,0 l/m 1,1 km/h (0 Bft) 0,00 h 0,00 h 2,5 km/h (1 Bft)
17.05.2011 00:00 19,8 C 13,5 C 0,0 UV-I 0,0 C 54 % 81 % 0 % 1021,2 hPa 0,0 l/m 1,5 km/h (1 Bft) 0,00 h 0,00 h 3,2 km/h (1 Bft)
17.05.2011 01:00 19,8 C 13,3 C 0,0 UV-I 0,0 C 54 % 81 % 0 % 1020,9 hPa 0,0 l/m 1,4 km/h (1 Bft) 0,00 h 0,00 h 1,7 km/h (1 Bft)
17.05.2011 02:00 19,7 C 13,2 C 0,1 UV-I 0,0 C 54 % 81 % 0 % 1020,5 hPa 0,0 l/m 1,0 km/h (0 Bft) 0,00 h 0,00 h 1,0 km/h (0 Bft)
17.05.2011 03:00 19,6 C 12,8 C 0,1 UV-I 0,0 C 53 % 81 % 0 % 1020,0 hPa 0,0 l/m 1,4 km/h (1 Bft) 0,00 h 0,00 h 2,4 km/h (1 Bft)
17.05.2011 04:00 19,6 C 12,8 C 0,1 UV-I 0,0 C 53 % 81 % 0 % 1019,7 hPa 0,0 l/m 3,1 km/h (1 Bft) 0,00 h 0,00 h 4,9 km/h (1 Bft)
17.05.2011 05:00 19,5 C 12,8 C 0,1 UV-I 0,0 C 53 % 81 % 0 % 1019,5 hPa 0,0 l/m 3,1 km/h (1 Bft) 0,00 h 0,00 h 3,8 km/h (1 Bft)
17.05.2011 06:00 19,5 C 12,6 C 0,2 UV-I 0,0 C 53 % 82 % 0 % 1019,5 hPa 0,0 l/m 2,3 km/h (1 Bft) 0,00 h 0,43 h 3,5 km/h (1 Bft)
17.05.2011 07:00 19,5 C 12,4 C 0,5 UV-I 0,0 C 54 % 85 % 0 % 1019,8 hPa 0,1 l/m 2,8 km/h (1 Bft) 0,00 h 0,73 h 3,6 km/h (1 Bft)
17.05.2011 08:00 19,6 C 12,7 C 1,0 UV-I 0,2 C 55 % 86 % 7 % 1020,5 hPa 0,1 l/m 4,1 km/h (1 Bft) 0,00 h 0,20 h 4,6 km/h (1 Bft)
17.05.2011 09:00 19,7 C 13,3 C 1,2 UV-I 0,3 C 55 % 86 % 7 % 1020,6 hPa 0,0 l/m 4,2 km/h (1 Bft) 0,00 h 0,73 h 5,7 km/h (1 Bft)
17.05.2011 10:00 19,9 C 13,9 C 2,2 UV-I 1,5 C 55 % 86 % 43 % 1020,4 hPa 0,3 l/m 3,6 km/h (1 Bft) 0,23 h 0,20 h 5,0 km/h (1 Bft)
17.05.2011 11:00 20,0 C 14,8 C 1,7 UV-I 1,4 C 55 % 82 % 39 % 1020,7 hPa 0,0 l/m 3,9 km/h (1 Bft) 0,00 h 0,00 h 5,2 km/h (1 Bft)
17.05.2011 12:00 20,2 C 15,2 C 2,2 UV-I 1,8 C 54 % 78 % 51 % 1020,9 hPa 0,0 l/m 5,7 km/h (1 Bft) 0,40 h 0,00 h 6,1 km/h (2 Bft)
17.05.2011 13:00 20,5 C 16,6 C 3,6 UV-I 3,5 C 54 % 72 % 79 % 1020,9 hPa 0,0 l/m 5,5 km/h (1 Bft) 0,50 h 0,00 h 6,7 km/h (2 Bft)
17.05.2011 14:00 21,4 C 18,2 C 5,0 UV-I 5,0 C 52 % 63 % 100 % 1021,1 hPa 0,0 l/m 6,7 km/h (2 Bft) 1,00 h 0,00 h 8,1 km/h (2 Bft)
17.05.2011 15:00 22,1 C 18,5 C 4,8 UV-I 4,0 C 50 % 59 % 97 % 1021,4 hPa 0,0 l/m 6,7 km/h (2 Bft) 1,00 h 0,00 h 7,2 km/h (2 Bft)
17.05.2011 16:00 22,8 C 19,5 C 5,5 UV-I 4,5 C 48 % 53 % 100 % 1021,5 hPa 0,0 l/m 7,0 km/h (2 Bft) 1,00 h 0,00 h 7,0 km/h (2 Bft)
17.05.2011 17:00 23,1 C 19,3 C 3,3 UV-I 2,9 C 47 % 53 % 80 % 1021,1 hPa 0,0 l/m 5,9 km/h (2 Bft) 0,53 h 0,00 h 7,1 km/h (2 Bft)
17.05.2011 18:00 22,9 C 19,0 C 1,8 UV-I 1,7 C 47 % 55 % 49 % 1020,5 hPa 0,0 l/m 3,5 km/h (1 Bft) 0,00 h 0,00 h 5,4 km/h (1 Bft)
17.05.2011 19:00 22,6 C 18,7 C 1,2 UV-I 0,2 C 48 % 54 % 6 % 1020,2 hPa 0,0 l/m 2,0 km/h (1 Bft) 0,00 h 0,00 h 2,6 km/h (1 Bft)
17.05.2011 20:00 22,3 C 17,4 C 0,5 UV-I 0,0 C 48 % 59 % 0 % 1020,0 hPa 0,0 l/m 0,1 km/h (0 Bft) 0,00 h 0,00 h 0,1 km/h (0 Bft)
17.05.2011 21:00 21,8 C 15,5 C 0,2 UV-I 0,0 C 49 % 66 % 0 % 1019,9 hPa 0,0 l/m 0,0 km/h (0 Bft) 0,00 h 0,00 h 0,0 km/h (0 Bft)
17.05.2011 22:00 21,3 C 13,4 C 0,1 UV-I 0,0 C 50 % 74 % 0 % 1019,9 hPa 0,0 l/m 0,0 km/h (0 Bft) 0,00 h 0,37 h 0,0 km/h (0 Bft)
17.05.2011 23:00 21,0 C 12,0 C 0,1 UV-I 0,0 C 51 % 80 % 0 % 1019,8 hPa 0,0 l/m 0,0 km/h (0 Bft) 0,00 h 0,27 h 0,0 km/h (0 Bft)
18.05.2011 00:00 20,7 C 11,2 C 0,1 UV-I 0,0 C 52 % 84 % 0 % 1019,6 hPa 0,0 l/m 0,0 km/h (0 Bft) 0,00 h 0,00 h 0,0 km/h (0 Bft)
18.05.2011 01:00 20,5 C 10,7 C 0,1 UV-I 0,0 C 52 % 85 % 0 % 1019,3 hPa 0,0 l/m 0,0 km/h (0 Bft) 0,00 h 0,00 h 0,0 km/h (0 Bft)
18.05.2011 02:00 20,3 C 10,5 C 0,1 UV-I 0,0 C 52 % 86 % 0 % 1019,1 hPa 0,0 l/m 0,1 km/h (0 Bft) 0,00 h 0,00 h 0,0 km/h (0 Bft)
18.05.2011 03:00 20,2 C 10,6 C 0,1 UV-I 0,0 C 52 % 86 % 0 % 1018,6 hPa 0,0 l/m 0,0 km/h (0 Bft) 0,00 h 0,00 h 0,1 km/h (0 Bft)
18.05.2011 04:00 20,0 C 10,5 C 0,1 UV-I 0,0 C 52 % 84 % 0 % 1018,4 hPa 0,0 l/m 0,0 km/h (0 Bft) 0,00 h 0,00 h 0,1 km/h (0 Bft)
18.05.2011 05:00 19,9 C 10,3 C 0,1 UV-I 0,0 C 52 % 85 % 0 % 1018,2 hPa 0,0 l/m 0,1 km/h (0 Bft) 0,00 h 0,00 h 0,1 km/h (0 Bft)
18.05.2011 06:00 19,7 C 10,5 C 0,4 UV-I 0,0 C 52 % 84 % 0 % 1018,1 hPa 0,0 l/m 0,4 km/h (0 Bft) 0,00 h 0,13 h 0,5 km/h (0 Bft)
18.05.2011 07:00 19,7 C 11,4 C 0,9 UV-I 0,4 C 52 % 84 % 13 % 1018,1 hPa 0,0 l/m 0,9 km/h (0 Bft) 0,00 h 0,00 h 1,8 km/h (1 Bft)
18.05.2011 08:00 19,9 C 12,8 C 1,5 UV-I 1,6 C 52 % 80 % 46 % 1018,1 hPa 0,0 l/m 1,4 km/h (1 Bft) 0,00 h 0,00 h 1,8 km/h (1 Bft)
18.05.2011 09:00 20,2 C 14,4 C 3,5 UV-I 3,4 C 51 % 76 % 89 % 1018,1 hPa 0,0 l/m 3,0 km/h (1 Bft) 0,78 h 0,00 h 5,2 km/h (1 Bft)
18.05.2011 10:00 20,3 C 16,5 C 6,9 UV-I 6,2 C 51 % 69 % 100 % 1018,0 hPa 0,0 l/m 6,0 km/h (2 Bft) 0,97 h 0,00 h 8,8 km/h (2 Bft)
18.05.2011 11:00 20,3 C 17,9 C 5,4 UV-I 5,6 C 51 % 63 % 100 % 1017,9 hPa 0,0 l/m 6,3 km/h (2 Bft) 1,00 h 0,00 h 6,9 km/h (2 Bft)
18.05.2011 12:00 20,6 C 18,4 C 4,7 UV-I 4,6 C 51 % 60 % 100 % 1017,9 hPa 0,0 l/m 5,9 km/h (2 Bft) 1,00 h 0,00 h 6,5 km/h (2 Bft)
18.05.2011 13:00 21,0 C 19,5 C 5,1 UV-I 5,1 C 49 % 56 % 100 % 1017,5 hPa 0,0 l/m 5,7 km/h (1 Bft) 1,00 h 0,00 h 6,0 km/h (2 Bft)
18.05.2011 14:00 21,7 C 20,5 C 5,1 UV-I 4,5 C 49 % 54 % 100 % 1017,1 hPa 0,0 l/m 5,5 km/h (1 Bft) 1,00 h 0,00 h 6,6 km/h (2 Bft)
18.05.2011 15:00 22,8 C 22,1 C 7,5 UV-I 5,8 C 47 % 52 % 100 % 1017,2 hPa 0,0 l/m 5,5 km/h (1 Bft) 1,00 h 0,00 h 6,2 km/h (2 Bft)
18.05.2011 16:00 23,7 C 22,7 C 6,9 UV-I 4,4 C 45 % 50 % 99 % 1016,8 hPa 0,0 l/m 4,4 km/h (1 Bft) 1,00 h 0,00 h 5,4 km/h (1 Bft)
18.05.2011 17:00 24,2 C 23,2 C 5,3 UV-I 4,9 C 45 % 48 % 100 % 1016,2 hPa 0,0 l/m 4,7 km/h (1 Bft) 1,00 h 0,00 h 5,2 km/h (1 Bft)
18.05.2011 18:00 24,0 C 22,9 C 2,1 UV-I 2,3 C 45 % 48 % 63 % 1015,6 hPa 0,0 l/m 3,6 km/h (1 Bft) 0,40 h 0,00 h 3,9 km/h (1 Bft)
18.05.2011 19:00 23,4 C 22,4 C 1,2 UV-I 0,0 C 46 % 49 % 0 % 1015,2 hPa 0,0 l/m 2,1 km/h (1 Bft) 0,00 h 0,00 h 3,2 km/h (1 Bft)
18.05.2011 20:00 23,1 C 21,6 C 0,5 UV-I 0,0 C 47 % 51 % 0 % 1015,0 hPa 0,0 l/m 0,4 km/h (0 Bft) 0,00 h 0,00 h 0,8 km/h (0 Bft)
18.05.2011 21:00 22,8 C 19,6 C 0,1 UV-I 0,0 C 48 % 57 % 0 % 1015,1 hPa 0,0 l/m 0,1 km/h (0 Bft) 0,00 h 0,00 h 0,1 km/h (0 Bft)
18.05.2011 22:00 22,5 C 17,4 C 0,1 UV-I 0,0 C 49 % 65 % 0 % 1015,6 hPa 0,0 l/m 1,2 km/h (1 Bft) 0,00 h 0,00 h 2,2 km/h (1 Bft)
18.05.2011 23:00 22,1 C 16,2 C 0,1 UV-I 0,0 C 50 % 72 % 0 % 1015,7 hPa 0,0 l/m 1,1 km/h (1 Bft) 0,00 h 0,00 h 1,1 km/h (0 Bft)
19.05.2011 00:00 21,8 C 14,7 C 0,1 UV-I 0,0 C 51 % 77 % 0 % 1015,9 hPa 0,0 l/m 0,0 km/h (0 Bft) 0,00 h 0,13 h 0,0 km/h (0 Bft)
19.05.2011 01:00 21,6 C 13,8 C 0,1 UV-I 0,0 C 52 % 81 % 0 % 1015,8 hPa 0,0 l/m 0,0 km/h (0 Bft) 0,00 h 0,30 h 0,0 km/h (0 Bft)
19.05.2011 02:00 21,5 C 13,1 C 0,1 UV-I 0,0 C 52 % 83 % 0 % 1015,9 hPa 0,0 l/m 0,0 km/h (0 Bft) 0,00 h 0,10 h 0,0 km/h (0 Bft)
19.05.2011 03:00 21,3 C 12,9 C 0,1 UV-I 0,0 C 53 % 86 % 0 % 1016,0 hPa 0,0 l/m 0,0 km/h (0 Bft) 0,00 h 0,10 h 0,0 km/h (0 Bft)
19.05.2011 04:00 21,2 C 12,7 C 0,1 UV-I 0,0 C 53 % 86 % 0 % 1016,1 hPa 0,0 l/m 0,0 km/h (0 Bft) 0,00 h 0,13 h 0,0 km/h (0 Bft)
19.05.2011 05:00 21,1 C 12,4 C 0,1 UV-I 0,0 C 53 % 88 % 0 % 1016,1 hPa 0,0 l/m 0,0 km/h (0 Bft) 0,00 h 0,00 h 0,0 km/h (0 Bft)
19.05.2011 06:00 21,0 C 12,4 C 0,3 UV-I 0,0 C 54 % 88 % 0 % 1016,5 hPa 0,0 l/m 0,0 km/h (0 Bft) 0,00 h 0,00 h 0,0 km/h (0 Bft)
19.05.2011 07:00 21,0 C 13,0 C 0,7 UV-I 0,5 C 54 % 89 % 14 % 1016,8 hPa 0,0 l/m 0,0 km/h (0 Bft) 0,00 h 0,00 h 0,0 km/h (0 Bft)
19.05.2011 08:00 21,1 C 14,5 C 1,4 UV-I 1,7 C 54 % 87 % 49 % 1017,0 hPa 0,0 l/m 0,0 km/h (0 Bft) 0,00 h 0,00 h 0,0 km/h (0 Bft)
19.05.2011 09:00 21,3 C 15,7 C 2,4 UV-I 2,9 C 54 % 82 % 82 % 1017,4 hPa 0,0 l/m 0,0 km/h (0 Bft) 0,53 h 0,00 h 0,0 km/h (0 Bft)
19.05.2011 10:00 21,6 C 16,9 C 3,0 UV-I 3,8 C 54 % 77 % 89 % 1017,7 hPa 0,0 l/m 0,8 km/h (0 Bft) 0,80 h 0,20 h 1,5 km/h (1 Bft)
19.05.2011 11:00 21,7 C 17,5 C 3,3 UV-I 3,4 C 54 % 76 % 85 % 1017,9 hPa 0,0 l/m 3,2 km/h (1 Bft) 0,73 h 0,03 h 4,7 km/h (1 Bft)
19.05.2011 12:00 22,0 C 18,7 C 3,6 UV-I 5,1 C 54 % 71 % 100 % 1018,1 hPa 0,0 l/m 2,3 km/h (1 Bft) 1,00 h 0,00 h 3,3 km/h (1 Bft)
19.05.2011 13:00 22,3 C 19,6 C 3,3 UV-I 4,0 C 54 % 66 % 93 % 1018,2 hPa 0,0 l/m 4,4 km/h (1 Bft) 0,80 h 0,00 h 5,9 km/h (2 Bft)
19.05.2011 14:00 22,7 C 20,9 C 4,9 UV-I 5,5 C 53 % 62 % 100 % 1018,1 hPa 0,0 l/m 5,0 km/h (1 Bft) 1,00 h 0,00 h 6,9 km/h (2 Bft)
19.05.2011 15:00 23,3 C 21,3 C 4,6 UV-I 4,5 C 52 % 61 % 95 % 1018,1 hPa 0,0 l/m 8,9 km/h (2 Bft) 0,83 h 0,00 h 10,1 km/h (2 Bft)
19.05.2011 16:00 23,7 C 20,8 C 5,5 UV-I 4,1 C 52 % 63 % 98 % 1018,3 hPa 0,0 l/m 12,6 km/h (3 Bft) 0,93 h 0,00 h 12,9 km/h (3 Bft)
19.05.2011 17:00 24,0 C 19,9 C 3,8 UV-I 3,5 C 51 % 62 % 96 % 1018,4 hPa 0,0 l/m 12,2 km/h (2 Bft) 0,97 h 0,00 h 14,1 km/h (3 Bft)
19.05.2011 18:00 23,9 C 18,6 C 1,7 UV-I 1,5 C 51 % 65 % 42 % 1018,5 hPa 0,0 l/m 9,4 km/h (2 Bft) 0,00 h 0,00 h 9,3 km/h (2 Bft)
19.05.2011 19:00 23,5 C 18,0 C 1,0 UV-I 0,5 C 51 % 66 % 15 % 1018,3 hPa 0,0 l/m 9,3 km/h (2 Bft) 0,00 h 0,00 h 9,2 km/h (2 Bft)
19.05.2011 20:00 23,1 C 17,3 C 0,2 UV-I 0,0 C 52 % 68 % 0 % 1018,4 hPa 0,0 l/m 7,4 km/h (2 Bft) 0,00 h 0,00 h 8,2 km/h (2 Bft)
19.05.2011 21:00 22,7 C 16,3 C 0,0 UV-I 0,0 C 53 % 71 % 0 % 1018,6 hPa 0,0 l/m 5,9 km/h (2 Bft) 0,00 h 0,00 h 5,9 km/h (2 Bft)
19.05.2011 22:00 22,3 C 15,8 C 0,0 UV-I 0,0 C 54 % 74 % 0 % 1019,0 hPa 0,0 l/m 4,2 km/h (1 Bft) 0,00 h 0,00 h 5,0 km/h (1 Bft)
19.05.2011 23:00 22,0 C 15,2 C 0,0 UV-I 0,0 C 54 % 76 % 0 % 1019,1 hPa 0,0 l/m 1,9 km/h (1 Bft) 0,00 h 0,00 h 2,6 km/h (1 Bft)
20.05.2011 00:00 21,9 C 15,1 C 0,0 UV-I 0,0 C 55 % 76 % 0 % 1019,0 hPa 0,0 l/m 2,1 km/h (1 Bft) 0,00 h 0,00 h 3,5 km/h (1 Bft)
20.05.2011 01:00 21,7 C 14,7 C 0,0 UV-I 0,0 C 55 % 77 % 0 % 1019,0 hPa 0,0 l/m 1,2 km/h (1 Bft) 0,00 h 0,00 h 1,4 km/h (1 Bft)
20.05.2011 02:00 21,6 C 14,1 C 0,0 UV-I 0,0 C 55 % 78 % 0 % 1018,8 hPa 0,0 l/m 0,3 km/h (0 Bft) 0,00 h 0,00 h 0,1 km/h (0 Bft)
20.05.2011 03:00 21,5 C 13,8 C 0,0 UV-I 0,0 C 55 % 79 % 0 % 1018,7 hPa 0,0 l/m 0,1 km/h (0 Bft) 0,00 h 0,00 h 0,0 km/h (0 Bft)
20.05.2011 04:00 21,3 C 13,0 C 0,1 UV-I 0,0 C 55 % 80 % 0 % 1018,4 hPa 0,0 l/m 0,0 km/h (0 Bft) 0,00 h 0,13 h 0,0 km/h (0 Bft)
20.05.2011 05:00 21,2 C 12,1 C 0,1 UV-I 0,0 C 55 % 83 % 0 % 1018,4 hPa 0,0 l/m 0,0 km/h (0 Bft) 0,00 h 0,20 h 0,0 km/h (0 Bft)
20.05.2011 06:00 21,1 C 11,3 C 0,3 UV-I 0,0 C 55 % 85 % 0 % 1018,3 hPa 0,0 l/m 0,0 km/h (0 Bft) 0,00 h 0,00 h 0,0 km/h (0 Bft)
20.05.2011 07:00 21,0 C 11,9 C 0,9 UV-I 0,3 C 55 % 87 % 9 % 1018,8 hPa 0,0 l/m 0,0 km/h (0 Bft) 0,00 h 0,10 h 0,0 km/h (0 Bft)
20.05.2011 08:00 21,0 C 14,1 C 2,3 UV-I 3,7 C 55 % 85 % 77 % 1019,0 hPa 0,0 l/m 0,4 km/h (0 Bft) 0,57 h 0,00 h 0,7 km/h (0 Bft)
20.05.2011 09:00 21,2 C 17,1 C 5,8 UV-I 6,6 C 55 % 76 % 100 % 1019,1 hPa 0,0 l/m 1,9 km/h (1 Bft) 1,00 h 0,00 h 2,7 km/h (1 Bft)
20.05.2011 10:00 21,5 C 18,7 C 5,4 UV-I 6,0 C 55 % 69 % 100 % 1019,3 hPa 0,0 l/m 2,8 km/h (1 Bft) 1,00 h 0,00 h 3,6 km/h (1 Bft)
20.05.2011 11:00 21,8 C 19,9 C 5,0 UV-I 6,3 C 54 % 65 % 100 % 1019,4 hPa 0,0 l/m 3,4 km/h (1 Bft) 1,00 h 0,00 h 4,5 km/h (1 Bft)
20.05.2011 12:00 22,1 C 21,6 C 4,0 UV-I 7,2 C 54 % 58 % 100 % 1019,4 hPa 0,0 l/m 4,0 km/h (1 Bft) 1,00 h 0,00 h 5,6 km/h (1 Bft)
20.05.2011 13:00 22,5 C 22,2 C 3,4 UV-I 4,1 C 53 % 54 % 89 % 1019,3 hPa 0,0 l/m 3,8 km/h (1 Bft) 0,67 h 0,00 h 4,5 km/h (1 Bft)
20.05.2011 14:00 22,9 C 22,6 C 4,8 UV-I 4,5 C 52 % 54 % 98 % 1019,3 hPa 0,0 l/m 4,8 km/h (1 Bft) 1,00 h 0,00 h 6,2 km/h (2 Bft)
20.05.2011 15:00 23,6 C 23,2 C 4,7 UV-I 4,6 C 51 % 51 % 100 % 1019,2 hPa 0,0 l/m 3,9 km/h (1 Bft) 1,00 h 0,00 h 4,9 km/h (1 Bft)
20.05.2011 16:00 23,8 C 22,9 C 2,6 UV-I 2,4 C 50 % 50 % 66 % 1019,0 hPa 0,0 l/m 3,8 km/h (1 Bft) 0,23 h 0,00 h 4,5 km/h (1 Bft)
20.05.2011 17:00 23,7 C 23,0 C 2,5 UV-I 2,6 C 50 % 50 % 75 % 1018,9 hPa 0,0 l/m 3,4 km/h (1 Bft) 0,43 h 0,00 h 3,8 km/h (1 Bft)
20.05.2011 18:00 23,8 C 22,8 C 1,8 UV-I 1,8 C 50 % 51 % 52 % 1018,6 hPa 0,0 l/m 3,8 km/h (1 Bft) 0,20 h 0,00 h 5,1 km/h (1 Bft)
20.05.2011 19:00 23,6 C 21,8 C 0,8 UV-I 0,2 C 51 % 54 % 5 % 1018,6 hPa 0,0 l/m 4,1 km/h (1 Bft) 0,00 h 0,00 h 4,3 km/h (1 Bft)
20.05.2011 20:00 23,3 C 20,8 C 0,3 UV-I 0,0 C 52 % 57 % 1 % 1019,1 hPa 0,0 l/m 2,9 km/h (1 Bft) 0,00 h 0,00 h 3,3 km/h (1 Bft)
20.05.2011 21:00 23,1 C 19,7 C 0,0 UV-I 0,0 C 52 % 61 % 0 % 1019,5 hPa 0,0 l/m 0,0 km/h (0 Bft) 0,00 h 0,00 h 0,0 km/h (0 Bft)
20.05.2011 22:00 22,9 C 18,5 C 0,0 UV-I 0,0 C 53 % 63 % 0 % 1020,3 hPa 0,0 l/m 3,8 km/h (1 Bft) 0,00 h 0,00 h 5,3 km/h (1 Bft)
20.05.2011 23:00 22,6 C 17,0 C 0,0 UV-I 0,0 C 53 % 63 % 0 % 1020,8 hPa 0,0 l/m 2,5 km/h (1 Bft) 0,00 h 0,00 h 3,1 km/h (1 Bft)
21.05.2011 00:00 22,3 C 15,7 C 0,0 UV-I 0,0 C 53 % 65 % 0 % 1021,4 hPa 0,0 l/m 0,2 km/h (0 Bft) 0,00 h 0,00 h 0,3 km/h (0 Bft)
21.05.2011 01:00 22,1 C 14,4 C 0,0 UV-I 0,0 C 53 % 67 % 0 % 1021,9 hPa 0,0 l/m 0,1 km/h (0 Bft) 0,00 h 0,17 h 0,4 km/h (0 Bft)
21.05.2011 02:00 21,8 C 13,4 C 0,0 UV-I 0,0 C 53 % 70 % 0 % 1022,1 hPa 0,0 l/m 0,0 km/h (0 Bft) 0,00 h 0,53 h 0,0 km/h (0 Bft)
21.05.2011 03:00 21,7 C 13,2 C 0,0 UV-I 0,0 C 53 % 72 % 0 % 1022,2 hPa 0,0 l/m 0,2 km/h (0 Bft) 0,00 h 0,37 h 0,4 km/h (0 Bft)
21.05.2011 04:00 21,6 C 12,9 C 0,0 UV-I 0,0 C 53 % 74 % 0 % 1022,8 hPa 0,0 l/m 0,1 km/h (0 Bft) 0,00 h 0,03 h 0,1 km/h (0 Bft)
21.05.2011 05:00 21,4 C 12,2 C 0,1 UV-I 0,0 C 53 % 77 % 0 % 1022,9 hPa 0,0 l/m 0,1 km/h (0 Bft) 0,00 h 0,00 h 0,0 km/h (0 Bft)
21.05.2011 06:00 21,2 C 11,4 C 0,2 UV-I 0,0 C 53 % 80 % 0 % 1023,0 hPa 0,0 l/m 0,1 km/h (0 Bft) 0,00 h 0,07 h 0,4 km/h (0 Bft)
21.05.2011 07:00 21,2 C 11,7 C 0,9 UV-I 0,1 C 54 % 82 % 3 % 1023,2 hPa 0,0 l/m 1,9 km/h (1 Bft) 0,00 h 0,00 h 2,4 km/h (1 Bft)
21.05.2011 08:00 21,2 C 12,8 C 2,0 UV-I 2,9 C 54 % 83 % 71 % 1023,5 hPa 0,0 l/m 2,1 km/h (1 Bft) 0,57 h 0,00 h 2,5 km/h (1 Bft)
21.05.2011 09:00 21,3 C 15,2 C 5,3 UV-I 6,8 C 54 % 78 % 100 % 1023,7 hPa 0,0 l/m 2,4 km/h (1 Bft) 1,00 h 0,00 h 3,0 km/h (1 Bft)
21.05.2011 10:00 21,4 C 17,3 C 6,5 UV-I 7,8 C 54 % 65 % 100 % 1023,8 hPa 0,0 l/m 3,5 km/h (1 Bft) 1,00 h 0,00 h 4,1 km/h (1 Bft)
21.05.2011 11:00 21,7 C 18,8 C 5,5 UV-I 7,7 C 53 % 55 % 100 % 1023,6 hPa 0,0 l/m 3,5 km/h (1 Bft) 1,00 h 0,00 h 4,4 km/h (1 Bft)
21.05.2011 12:00 22,0 C 20,2 C 3,9 UV-I 7,4 C 53 % 52 % 100 % 1023,4 hPa 0,0 l/m 4,3 km/h (1 Bft) 1,00 h 0,00 h 6,1 km/h (2 Bft)
21.05.2011 13:00 22,5 C 21,8 C 4,9 UV-I 6,9 C 52 % 50 % 100 % 1022,8 hPa 0,0 l/m 3,9 km/h (1 Bft) 1,00 h 0,00 h 4,0 km/h (1 Bft)
21.05.2011 14:00 23,5 C 23,2 C 6,0 UV-I 6,6 C 50 % 47 % 100 % 1022,4 hPa 0,0 l/m 3,9 km/h (1 Bft) 1,00 h 0,00 h 4,2 km/h (1 Bft)
21.05.2011 15:00 24,6 C 24,2 C 7,2 UV-I 6,5 C 48 % 43 % 100 % 1022,2 hPa 0,0 l/m 4,2 km/h (1 Bft) 1,00 h 0,00 h 5,4 km/h (1 Bft)
21.05.2011 16:00 25,4 C 25,2 C 7,3 UV-I 5,5 C 45 % 38 % 100 % 1021,8 hPa 0,0 l/m 4,4 km/h (1 Bft) 1,00 h 0,00 h 5,1 km/h (1 Bft)
21.05.2011 17:00 25,7 C 25,2 C 5,2 UV-I 5,4 C 44 % 38 % 100 % 1021,0 hPa 0,0 l/m 2,8 km/h (1 Bft) 1,00 h 0,33 h 3,4 km/h (1 Bft)
21.05.2011 18:00 25,4 C 24,3 C 2,2 UV-I 2,0 C 44 % 40 % 58 % 1020,1 hPa 0,0 l/m 2,4 km/h (1 Bft) 0,37 h 0,37 h 2,7 km/h (1 Bft)
21.05.2011 19:00 24,8 C 23,5 C 1,4 UV-I 0,0 C 45 % 43 % 1 % 1019,2 hPa 0,0 l/m 0,9 km/h (0 Bft) 0,00 h 0,00 h 0,8 km/h (0 Bft)
21.05.2011 20:00 24,4 C 22,5 C 0,7 UV-I 0,0 C 47 % 47 % 0 % 1018,8 hPa 0,0 l/m 0,4 km/h (0 Bft) 0,00 h 1,00 h 0,3 km/h (0 Bft)
21.05.2011 21:00 24,1 C 20,5 C 0,2 UV-I 0,0 C 48 % 54 % 0 % 1018,4 hPa 0,0 l/m 0,0 km/h (0 Bft) 0,00 h 1,00 h 0,0 km/h (0 Bft)
21.05.2011 22:00 23,8 C 18,1 C 0,1 UV-I 0,0 C 48 % 62 % 0 % 1018,4 hPa 0,0 l/m 0,0 km/h (0 Bft) 0,00 h 0,40 h 0,0 km/h (0 Bft)
21.05.2011 23:00 23,4 C 16,4 C 0,1 UV-I 0,0 C 50 % 70 % 0 % 1018,2 hPa 0,0 l/m 0,0 km/h (0 Bft) 0,00 h 0,00 h 0,0 km/h (0 Bft)
22.05.2011 00:00 23,1 C 15,1 C 0,0 UV-I 0,0 C 50 % 73 % 0 % 1017,8 hPa 0,0 l/m 0,0 km/h (0 Bft) 0,00 h 0,00 h 0,0 km/h (0 Bft)
22.05.2011 01:00 22,8 C 14,2 C 0,0 UV-I 0,0 C 51 % 76 % 0 % 1017,5 hPa 0,0 l/m 0,0 km/h (0 Bft) 0,00 h 0,00 h 0,0 km/h (0 Bft)
22.05.2011 02:00 22,6 C 13,8 C 0,0 UV-I 0,0 C 51 % 78 % 0 % 1017,0 hPa 0,0 l/m 0,0 km/h (0 Bft) 0,00 h 0,00 h 0,0 km/h (0 Bft)
22.05.2011 03:00 22,4 C 13,0 C 0,0 UV-I 0,0 C 52 % 80 % 0 % 1016,7 hPa 0,0 l/m 0,0 km/h (0 Bft) 0,00 h 0,00 h 0,0 km/h (0 Bft)
22.05.2011 04:00 22,2 C 12,9 C 0,1 UV-I 0,0 C 52 % 82 % 0 % 1016,2 hPa 0,0 l/m 0,3 km/h (0 Bft) 0,00 h 0,00 h 1,1 km/h (1 Bft)
22.05.2011 05:00 22,1 C 13,7 C 0,1 UV-I 0,0 C 52 % 79 % 0 % 1015,8 hPa 0,0 l/m 1,8 km/h (1 Bft) 0,00 h 0,00 h 2,6 km/h (1 Bft)
22.05.2011 06:00 22,0 C 13,5 C 0,5 UV-I 0,0 C 52 % 78 % 1 % 1015,8 hPa 0,0 l/m 1,7 km/h (1 Bft) 0,00 h 0,07 h 3,1 km/h (1 Bft)
22.05.2011 07:00 22,0 C 14,6 C 0,6 UV-I 0,2 C 52 % 79 % 6 % 1015,9 hPa 0,0 l/m 3,1 km/h (1 Bft) 0,00 h 0,20 h 4,4 km/h (1 Bft)
22.05.2011 08:00 22,1 C 15,6 C 0,6 UV-I 0,1 C 53 % 78 % 2 % 1016,3 hPa 0,5 l/m 1,3 km/h (1 Bft) 0,00 h 0,47 h 1,7 km/h (1 Bft)
22.05.2011 09:00 22,2 C 15,9 C 1,2 UV-I 0,5 C 54 % 84 % 15 % 1016,2 hPa 0,1 l/m 1,1 km/h (1 Bft) 0,00 h 0,27 h 1,7 km/h (1 Bft)
22.05.2011 10:00 22,4 C 18,2 C 5,1 UV-I 3,9 C 54 % 83 % 82 % 1016,2 hPa 0,0 l/m 5,2 km/h (1 Bft) 0,77 h 0,83 h 7,9 km/h (2 Bft)
22.05.2011 11:00 22,7 C 20,7 C 4,0 UV-I 3,9 C 54 % 71 % 93 % 1016,0 hPa 0,0 l/m 5,7 km/h (1 Bft) 0,77 h 0,40 h 6,3 km/h (2 Bft)
22.05.2011 12:00 23,0 C 21,4 C 3,3 UV-I 2,7 C 54 % 68 % 73 % 1016,3 hPa 0,0 l/m 7,0 km/h (2 Bft) 0,50 h 0,20 h 7,6 km/h (2 Bft)
22.05.2011 13:00 23,2 C 21,4 C 4,4 UV-I 3,7 C 54 % 69 % 86 % 1016,4 hPa 0,0 l/m 6,1 km/h (2 Bft) 0,57 h 0,13 h 6,4 km/h (2 Bft)
22.05.2011 14:00 23,8 C 23,1 C 5,6 UV-I 4,9 C 53 % 57 % 100 % 1016,4 hPa 0,0 l/m 8,6 km/h (2 Bft) 1,00 h 0,00 h 11,1 km/h (2 Bft)
22.05.2011 15:00 24,2 C 23,0 C 4,1 UV-I 2,8 C 51 % 50 % 79 % 1016,9 hPa 0,0 l/m 8,7 km/h (2 Bft) 0,40 h 0,20 h 9,8 km/h (2 Bft)
22.05.2011 16:00 24,3 C 22,5 C 4,4 UV-I 2,2 C 49 % 46 % 64 % 1017,5 hPa 0,0 l/m 10,5 km/h (2 Bft) 0,27 h 0,00 h 12,9 km/h (3 Bft)
22.05.2011 17:00 24,7 C 22,3 C 4,3 UV-I 3,4 C 47 % 45 % 89 % 1018,2 hPa 0,0 l/m 12,0 km/h (2 Bft) 0,67 h 0,00 h 13,6 km/h (3 Bft)
22.05.2011 18:00 24,9 C 21,3 C 1,9 UV-I 1,7 C 43 % 28 % 47 % 1019,2 hPa 0,0 l/m 11,2 km/h (2 Bft) 0,33 h 0,00 h 13,5 km/h (3 Bft)
22.05.2011 19:00 24,3 C 20,0 C 1,2 UV-I 0,0 C 41 % 33 % 0 % 1019,9 hPa 0,0 l/m 9,5 km/h (2 Bft) 0,00 h 0,00 h 11,1 km/h (2 Bft)
22.05.2011 20:00 23,9 C 18,3 C 0,6 UV-I 0,0 C 42 % 40 % 0 % 1020,9 hPa 0,0 l/m 7,8 km/h (2 Bft) 0,00 h 0,00 h 9,2 km/h (2 Bft)
22.05.2011 21:00 23,4 C 16,8 C 0,2 UV-I 0,0 C 43 % 45 % 0 % 1021,8 hPa 0,0 l/m 4,1 km/h (1 Bft) 0,00 h 0,00 h 3,7 km/h (1 Bft)
22.05.2011 22:00 22,9 C 15,4 C 0,1 UV-I 0,0 C 44 % 51 % 0 % 1022,8 hPa 0,0 l/m 1,7 km/h (1 Bft) 0,00 h 0,00 h 2,2 km/h (1 Bft)
22.05.2011 23:00 22,5 C 14,3 C 0,1 UV-I 0,0 C 44 % 55 % 0 % 1023,4 hPa 0,0 l/m 0,7 km/h (0 Bft) 0,00 h 0,00 h 1,1 km/h (1 Bft)
Min-Datum _ 17.05.11 18.05.11 16.05.11 16.05.11 22.05.11 22.05.11 16.05.11 18.05.11 - 16.05.11 - - 16.05.11
_ Min-Zeit 04:40 05:08 00:00 00:00 19:06 18:38 00:00 20:46 - 00:00 - - 00:00
Minimum _ 19,5 C 10,1 C 0,0 UV-I 0,0 C 41 % 24 % 0 % 1014,8 hPa - 0,0 km/h (0 Bft) - - 0,0 km/h (0 Bft)
Max-Datum _ 21.05.11 21.05.11 18.05.11 20.05.11 17.05.11 16.05.11 17.05.11 16.05.11 22.05.11 19.05.11 17.05.11 16.05.11 22.05.11
_ Max-Zeit 17:24 16:20 17:08 12:18 08:24 19:00 12:52 00:00 08:28 16:12 10:28 18:58 19:26
Maximum _ 25,8 C 25,5 C 8,8 UV-I 8,4 C 55 % 89 % 100 % 1024,4 hPa 0,5 l/m 16,5 km/h
S (3 Bft)
0,03 h 0,03 h 41,2 km/h
SO (6 Bft)
Durchschnitt _ 21,8 C 16,4 C 1,8 UV-I 1,6 C 51 % 69 % 33 % 1019,5 hPa #1,2 l/m 3,1 km/h (1 Bft) #44:43 h #11:52 h 3,8 km/h (1 Bft)
© 2012 W. Hausmann